Detalii statie ERDEI ROBERT [00001D0F]

Toti senzorii

Date Temperatura solului [C]Precipitatii [mm]Voltaj baterie [mV]Leaf Wetness [Min]HC Air temperature [C]HC Relative humidity [%]Punctul de roua [C]
medieminmaxsumaultimatimpmedieminmaxmediemediemin
2018-10-13 15:00:00 0 7158 24.15 23.85 24.48 0 0 0
2018-10-13 16:00:00 0 7118 23.96 23.62 24.29 0 0 0
2018-10-13 17:00:00 0 6844 23.01 22.09 23.79 0 0 0
2018-10-13 18:00:00 0 6708 19.93 18.11 21.77 0 0 0
2018-10-13 19:00:00 0 6698 16.86 15.93 17.9 0 0 0
2018-10-13 20:00:00 0 6688 15.5 14.38 16.28 0 0 0
2018-10-13 21:00:00 0 6668 13.35 12.75 13.9 0 0 0
2018-10-13 22:00:00 0 6678 11.98 10.75 12.99 0 0 0
2018-10-13 23:00:00 0 6668 11 10.55 11.53 0 0 0
2018-10-14 00:00:00 0 6660 8.92 8.26 10.33 0 0 0
2018-10-14 01:00:00 0 6660 9.34 8.25 9.87 0 0 0
2018-10-14 02:00:00 0 6660 9.53 9.1 10 0 0 0
2018-10-14 03:00:00 0 6660 9.1 8.59 9.45 0 0 0
2018-10-14 04:00:00 0 6660 8.54 7.99 9.05 0 0 0
2018-10-14 05:00:00 0 6660 7.66 7.28 7.97 0 0 0
2018-10-14 06:00:00 0 6650 7.3 6.95 7.66 0 0 0
2018-10-14 07:00:00 0 6650 6.4 5.74 7.04 0 0 0
2018-10-14 08:00:00 0 6884 7.84 6.75 9.6 0 0 0
2018-10-14 09:00:00 0 7166 13.06 10.04 15.79 0 0 0
2018-10-14 10:00:00 0 7166 17.64 15.97 18.83 0 0 0
2018-10-14 11:00:00 0 7158 19.7 19.11 20.21 0 0 0
2018-10-14 12:00:00 0 7158 20.72 19.8 21.43 0 0 0
2018-10-14 13:00:00 0 7158 22.01 21.22 22.65 0 0 0
2018-10-14 14:00:00 0 7158 22.95 22.41 23.41 0 0 0
2018-10-14 15:00:00 0 7138 23.11 22.9 23.32 0 0 0
2018-10-14 16:00:00 0 6904 22.88 22.59 23.13 0 0 0
2018-10-14 17:00:00 0 7060 21.71 20.45 22.5 0 0 0
2018-10-14 18:00:00 0 6698 18.16 16.36 20.03 0 0 0
2018-10-14 19:00:00 0 6698 15.06 14.35 15.96 0 0 0
2018-10-14 20:00:00 0 6678 12.83 11.34 14.83 0 0 0
2018-10-14 21:00:00 0 6678 10.31 9.6 11.51 0 0 0
2018-10-14 22:00:00 0 6668 10.23 8.73 11.83 0 0 0
2018-10-14 23:00:00 0 6668 9.74 9.02 10.3 0 0 0
2018-10-15 00:00:00 0 6660 9.39 8.59 10.27 0 0 0
2018-10-15 01:00:00 0 6660 8.15 7.31 9.2 0 0 0
2018-10-15 02:00:00 0 6660 8.54 8.02 9.14 0 0 0
2018-10-15 03:00:00 0 6660 7.63 6.41 8.21 0 0 0
2018-10-15 04:00:00 0 6650 6.45 5.84 6.83 0 0 0
2018-10-15 05:00:00 0 6650 5.76 5.51 6.23 0 0 0
2018-10-15 06:00:00 0 6650 4.82 4.16 5.78 0 0 0
2018-10-15 07:00:00 0 6660 4.83 4.26 5.47 0 0 0
2018-10-15 08:00:00 0 6962 5.58 4.44 7.65 0 0 0
2018-10-15 09:00:00 0 7166 10.8 7.99 14.44 0 0 0
2018-10-15 10:00:00 0 7158 16.61 15.06 18.42 0 0 0
2018-10-15 11:00:00 0 7158 19.7 18.46 20.95 0 0 0
2018-10-15 12:00:00 0 7148 21.9 20.92 23.16 0 0 0
2018-10-15 13:00:00 0 7148 23.67 23.34 24.2 0 0 0
2018-10-15 14:00:00 0 7148 24.14 23.39 25.03 0 0 0